Terminal Aerodrome Forecast
Issued by NWS

Home | Current Version | Previous Version | Graphics & Text | Print | Product List | Glossary On
Versions: 1 2 3 4 5 6 7 8 9 10 11 12 13 14 15
000
FTUS43 KGRB 251700
TAFMTW
TAF
KMTW 251731Z 2518/2618 16009KT P6SM SCT060 BKN100
     FM260200 19006KT P6SM SCT025 BKN040
     FM260800 23004KT 5SM BR SCT018 BKN030
     FM261400 28008KT P6SM BKN035=

USA.gov is the U.S. government's official web portal to all federal, state and local government web resources and services.